createdAt,value
2022-09-21T00:01:26.508Z,101025.92
2022-09-21T00:05:27.061Z,101030.91
2022-09-21T00:09:20.688Z,101030.52
2022-09-21T00:13:14.042Z,101030.80
2022-09-21T00:17:08.359Z,101038.10
2022-09-21T00:21:08.057Z,101039.88
2022-09-21T00:24:42.930Z,101040.50
2022-09-21T00:28:09.870Z,101035.27
2022-09-21T00:31:36.685Z,101030.37
2022-09-21T00:35:04.482Z,101029.77
2022-09-21T00:38:32.821Z,101034.48
2022-09-21T00:41:59.314Z,101035.70
2022-09-21T00:45:26.157Z,101036.55
2022-09-21T00:48:53.061Z,101036.84
2022-09-21T00:52:22.667Z,101035.64
2022-09-21T00:55:53.573Z,101038.31
2022-09-21T00:59:22.755Z,101041.40
2022-09-21T01:02:51.577Z,101043.29
2022-09-21T01:06:22.681Z,101042.17
2022-09-21T01:09:51.820Z,101044.09
2022-09-21T01:13:31.420Z,101048.25
2022-09-21T01:17:08.619Z,101051.95
2022-09-21T01:21:11.545Z,101056.23
2022-09-21T01:25:01.977Z,101055.45
2022-09-21T01:28:42.007Z,101056.55
2022-09-21T01:32:13.427Z,101052.80
2022-09-21T01:35:48.067Z,101056.66
2022-09-21T01:39:18.415Z,101059.70
2022-09-21T01:42:47.902Z,101059.83
2022-09-21T01:46:22.047Z,101061.58
2022-09-21T01:49:53.481Z,101061.59
2022-09-21T01:53:25.357Z,101062.52
2022-09-21T01:56:57.378Z,101068.22
2022-09-21T02:00:26.374Z,101066.42
2022-09-21T02:03:58.835Z,101066.41
2022-09-21T02:07:27.077Z,101066.66
2022-09-21T02:10:55.538Z,101068.43
2022-09-21T02:14:26.572Z,101068.36
2022-09-21T02:18:01.529Z,101070.85
2022-09-21T02:21:33.315Z,101075.00
2022-09-21T02:25:09.510Z,101072.60
2022-09-21T02:28:45.100Z,101071.90
2022-09-21T02:32:17.761Z,101072.34
2022-09-21T02:35:52.354Z,101075.67
2022-09-21T02:39:26.917Z,101072.84
2022-09-21T02:42:58.485Z,101075.64
2022-09-21T02:46:30.930Z,101077.77
2022-09-21T02:50:04.464Z,101085.32
2022-09-21T02:53:36.492Z,101091.17
2022-09-21T02:57:04.881Z,101095.70
2022-09-21T03:00:31.635Z,101101.79
2022-09-21T03:04:01.816Z,101111.08
2022-09-21T03:07:28.745Z,101111.59
2022-09-21T03:10:55.912Z,101123.11
2022-09-21T03:14:23.878Z,101123.16
2022-09-21T03:17:50.567Z,101121.59
2022-09-21T03:21:17.263Z,101124.93
2022-09-21T03:24:46.791Z,101125.95
2022-09-21T03:28:14.070Z,101120.40
2022-09-21T03:31:41.151Z,101119.21
2022-09-21T03:35:08.895Z,101121.07
2022-09-21T03:38:36.642Z,101119.02
2022-09-21T03:42:04.884Z,101121.77
2022-09-21T03:45:34.222Z,101123.27
2022-09-21T03:49:01.434Z,101122.34
2022-09-21T03:52:28.281Z,101122.91
2022-09-21T03:55:54.837Z,101127.96
2022-09-21T03:59:21.986Z,101125.16
2022-09-21T04:02:50.419Z,101130.73
2022-09-21T04:06:17.325Z,101134.22
2022-09-21T04:09:44.076Z,101136.58
2022-09-21T04:13:11.684Z,101138.70
2022-09-21T04:16:38.901Z,101141.42
2022-09-21T04:20:07.318Z,101145.80
2022-09-21T04:23:35.368Z,101146.04
2022-09-21T04:27:02.429Z,101143.84
2022-09-21T04:30:30.580Z,101145.40
2022-09-21T04:34:00.768Z,101148.01
2022-09-21T04:37:27.464Z,101147.63
2022-09-21T04:40:59.486Z,101152.98
2022-09-21T04:44:26.134Z,101155.88
2022-09-21T04:47:53.213Z,101157.85
2022-09-21T04:51:22.866Z,101161.15
2022-09-21T04:54:51.181Z,101156.75
2022-09-21T04:58:24.268Z,101159.01
2022-09-21T05:01:52.409Z,101166.55
2022-09-21T05:05:19.551Z,101162.98
2022-09-21T05:09:04.490Z,101165.72
2022-09-21T05:12:31.442Z,101162.41
2022-09-21T05:15:59.305Z,101166.19
2022-09-21T05:19:27.319Z,101170.95
2022-09-21T05:22:54.403Z,101175.33
2022-09-21T05:26:21.720Z,101174.61
2022-09-21T05:29:52.958Z,101181.13
2022-09-21T05:33:23.427Z,101179.02
2022-09-21T05:36:59.195Z,101184.46
2022-09-21T05:40:27.429Z,101192.03
2022-09-21T05:43:55.938Z,101203.85
2022-09-21T05:47:40.989Z,101203.73
2022-09-21T05:51:18.899Z,101206.63
2022-09-21T05:54:59.910Z,101205.87
2022-09-21T05:58:38.228Z,101202.55
2022-09-21T06:02:16.392Z,101202.89
2022-09-21T06:05:47.787Z,101201.42
2022-09-21T06:09:24.486Z,101206.96
2022-09-21T06:12:51.506Z,101203.44
2022-09-21T06:16:18.724Z,101206.95
2022-09-21T06:19:46.147Z,101206.23
2022-09-21T06:23:15.180Z,101208.39
2022-09-21T06:26:43.306Z,101210.09
2022-09-21T06:30:11.371Z,101213.84
2022-09-21T06:33:39.200Z,101210.52
2022-09-21T06:37:05.736Z,101215.09
2022-09-21T06:40:33.652Z,101218.81
2022-09-21T06:44:02.739Z,101220.59
2022-09-21T06:47:29.445Z,101217.20
2022-09-21T06:51:00.907Z,101218.72
2022-09-21T06:54:27.344Z,101219.58
2022-09-21T06:57:54.889Z,101222.65
2022-09-21T07:01:23.805Z,101223.20
2022-09-21T07:04:51.179Z,101223.23
2022-09-21T07:12:08.238Z,101227.58
2022-09-21T07:15:35.541Z,101233.23
2022-09-21T07:19:10.742Z,101228.31
2022-09-21T07:22:38.218Z,101231.11
2022-09-21T07:26:07.721Z,101232.48
2022-09-21T07:29:35.121Z,101235.86
2022-09-21T07:33:02.120Z,101234.89
2022-09-21T07:36:29.017Z,101235.32
2022-09-21T07:39:56.645Z,101229.77
2022-09-21T07:43:23.185Z,101233.63
2022-09-21T07:46:51.511Z,101238.27
2022-09-21T07:50:22.726Z,101237.23
2022-09-21T07:53:49.875Z,101235.01
2022-09-21T07:57:34.375Z,101240.20
2022-09-21T08:01:01.124Z,101240.86
2022-09-21T08:04:28.733Z,101240.63
2022-09-21T08:08:00.561Z,101240.30
2022-09-21T08:11:28.641Z,101239.08
2022-09-21T08:14:55.667Z,101237.73
2022-09-21T08:18:23.425Z,101240.20
2022-09-21T08:21:57.203Z,101240.86
2022-09-21T08:25:25.315Z,101242.77
2022-09-21T08:28:56.881Z,101240.02
2022-09-21T08:32:49.232Z,101242.86
2022-09-21T08:36:11.751Z,101243.89
2022-09-21T08:39:39.033Z,101239.88
2022-09-21T08:43:11.815Z,101239.38
2022-09-21T08:46:42.721Z,101242.70
2022-09-21T08:50:23.743Z,101245.14
2022-09-21T08:53:53.196Z,101245.20
2022-09-21T08:57:24.601Z,101253.56
2022-09-21T09:00:55.113Z,101250.73
2022-09-21T09:04:35.765Z,101249.27
2022-09-21T09:08:20.159Z,101243.86
2022-09-21T09:12:10.070Z,101247.15
2022-09-21T09:15:58.849Z,101244.42
2022-09-21T09:19:35.076Z,101243.61
2022-09-21T09:23:14.348Z,101240.84
2022-09-21T09:26:47.721Z,101240.60
2022-09-21T09:30:19.908Z,101248.29
2022-09-21T09:33:55.504Z,101248.80
2022-09-21T09:37:32.483Z,101250.92
2022-09-21T09:41:27.820Z,101247.75
2022-09-21T09:45:27.972Z,101243.09
2022-09-21T09:49:17.536Z,101248.05
2022-09-21T09:52:47.956Z,101266.02
2022-09-21T09:56:16.688Z,101279.57
2022-09-21T09:59:54.254Z,101277.48
2022-09-21T10:03:24.900Z,101275.05
2022-09-21T10:06:54.217Z,101283.88
2022-09-21T10:10:36.824Z,101289.74
2022-09-21T10:14:11.857Z,101290.48
2022-09-21T10:17:39.891Z,101288.44
2022-09-21T10:21:10.996Z,101284.55
2022-09-21T10:24:40.919Z,101282.75
2022-09-21T10:28:08.330Z,101282.80
2022-09-21T10:31:37.204Z,101281.00
2022-09-21T10:35:22.842Z,101275.44
2022-09-21T10:38:49.767Z,101274.96
2022-09-21T10:42:20.027Z,101274.67
2022-09-21T10:45:57.530Z,101273.27
2022-09-21T10:49:28.242Z,101269.77
2022-09-21T10:53:01.257Z,101268.75
2022-09-21T10:56:29.245Z,101269.62
2022-09-21T10:59:57.533Z,101266.30
2022-09-21T11:03:57.696Z,101257.39
2022-09-21T11:07:32.509Z,101254.10
2022-09-21T11:11:10.255Z,101253.36
2022-09-21T11:14:49.698Z,101250.70
2022-09-21T11:18:38.160Z,101249.55
2022-09-21T11:22:10.857Z,101248.41
2022-09-21T11:25:48.147Z,101246.63
2022-09-21T11:29:20.513Z,101242.51
2022-09-21T11:33:11.353Z,101245.27
2022-09-21T11:36:49.911Z,101245.52
2022-09-21T11:40:33.234Z,101241.80
2022-09-21T11:44:21.256Z,101246.92
2022-09-21T11:48:03.535Z,101246.95
2022-09-21T11:51:48.674Z,101244.46
2022-09-21T11:55:36.398Z,101240.66
2022-09-21T11:59:21.399Z,101232.91
2022-09-21T12:03:29.625Z,101228.61
2022-09-21T12:07:18.340Z,101228.87
2022-09-21T12:11:02.906Z,101223.80
2022-09-21T12:14:42.413Z,101221.75
2022-09-21T12:18:21.744Z,101219.76
2022-09-21T12:22:00.173Z,101216.89
2022-09-21T12:25:33.046Z,101210.95
2022-09-21T12:29:15.285Z,101206.40
2022-09-21T12:32:56.768Z,101202.81
2022-09-21T12:36:31.914Z,101205.52
2022-09-21T12:40:07.136Z,101201.15
2022-09-21T12:43:46.486Z,101200.11
2022-09-21T12:47:18.659Z,101202.47
2022-09-21T12:51:10.810Z,101197.96
2022-09-21T12:54:48.210Z,101191.84
2022-09-21T12:58:37.463Z,101191.73
2022-09-21T13:02:18.099Z,101198.52
2022-09-21T13:06:06.931Z,101192.96
2022-09-21T13:09:44.113Z,101200.64
2022-09-21T13:13:20.997Z,101198.32
2022-09-21T13:17:08.596Z,101199.45
2022-09-21T13:20:43.838Z,101197.80
2022-09-21T13:24:34.562Z,101191.14
2022-09-21T13:28:19.978Z,101191.22
2022-09-21T13:32:00.252Z,101189.23
2022-09-21T13:35:52.937Z,101187.99
2022-09-21T13:39:21.998Z,101184.56
2022-09-21T13:42:50.127Z,101187.52
2022-09-21T13:46:47.498Z,101188.34
2022-09-21T13:50:23.445Z,101189.59
2022-09-21T13:53:57.279Z,101191.41
2022-09-21T13:57:32.526Z,101183.92
2022-09-21T14:01:03.214Z,101183.52
2022-09-21T14:04:37.093Z,101187.09
2022-09-21T14:08:06.896Z,101176.57
2022-09-21T14:11:37.737Z,101179.46
2022-09-21T14:15:41.764Z,101182.52
2022-09-21T14:19:45.427Z,101177.79
2022-09-21T14:23:31.506Z,101182.44
2022-09-21T14:27:15.041Z,101177.55
2022-09-21T14:30:41.974Z,101182.46
2022-09-21T14:34:18.099Z,101185.35
2022-09-21T14:37:52.445Z,101182.37
2022-09-21T14:41:27.385Z,101189.01
2022-09-21T14:44:54.564Z,101184.04
2022-09-21T14:48:31.994Z,101180.49
2022-09-21T14:52:22.503Z,101184.04
2022-09-21T14:56:30.987Z,101182.67
2022-09-21T15:00:21.391Z,101180.33
2022-09-21T15:04:05.507Z,101181.56
2022-09-21T15:08:06.473Z,101189.24
2022-09-21T15:11:47.346Z,101184.79
2022-09-21T15:15:37.292Z,101185.05
2022-09-21T15:19:28.746Z,101184.60
2022-09-21T15:23:02.389Z,101180.84
2022-09-21T15:26:40.332Z,101182.94
2022-09-21T15:30:25.725Z,101188.63
2022-09-21T15:33:56.397Z,101189.42
2022-09-21T15:37:31.133Z,101192.22
2022-09-21T15:41:11.592Z,101196.27
2022-09-21T15:44:49.068Z,101198.61
2022-09-21T15:48:20.686Z,101200.82
2022-09-21T15:51:55.510Z,101201.54
2022-09-21T15:55:25.484Z,101205.17
2022-09-21T15:58:57.030Z,101206.27
2022-09-21T16:02:28.332Z,101208.27
2022-09-21T16:06:02.754Z,101212.52
2022-09-21T16:09:42.155Z,101218.46
2022-09-21T16:13:34.553Z,101218.91
2022-09-21T16:17:25.095Z,101221.45
2022-09-21T16:21:00.142Z,101222.59
2022-09-21T16:24:43.824Z,101228.96
2022-09-21T16:28:36.561Z,101235.20
2022-09-21T16:32:29.273Z,101239.55
2022-09-21T16:35:57.068Z,101246.57
2022-09-21T16:39:24.081Z,101244.85
2022-09-21T16:42:51.266Z,101249.71
2022-09-21T16:46:19.079Z,101251.49
2022-09-21T16:49:46.480Z,101254.78
2022-09-21T16:53:13.423Z,101257.90
2022-09-21T16:56:40.379Z,101259.63
2022-09-21T17:00:14.072Z,101261.46
2022-09-21T17:03:41.577Z,101260.40
2022-09-21T17:07:14.729Z,101269.39
2022-09-21T17:10:45.572Z,101267.99
2022-09-21T17:14:16.439Z,101274.32
2022-09-21T17:17:46.711Z,101282.78
2022-09-21T17:21:15.368Z,101281.47
2022-09-21T17:24:51.436Z,101285.71
2022-09-21T17:28:26.392Z,101282.89
2022-09-21T17:31:56.509Z,101288.15
2022-09-21T17:35:31.924Z,101293.98
2022-09-21T17:38:59.138Z,101297.70
2022-09-21T17:42:28.651Z,101298.81
2022-09-21T17:46:05.345Z,101300.70
2022-09-21T17:49:39.520Z,101301.48
2022-09-21T17:53:28.134Z,101301.84
2022-09-21T17:57:00.536Z,101305.17
2022-09-21T18:00:30.996Z,101310.24
2022-09-21T18:04:02.973Z,101315.27
2022-09-21T18:07:35.476Z,101315.67
2022-09-21T18:11:15.647Z,101314.66
2022-09-21T18:14:57.364Z,101322.95
2022-09-21T18:18:38.374Z,101326.11
2022-09-21T18:22:16.124Z,101327.83
2022-09-21T18:25:50.403Z,101328.33
2022-09-21T18:29:46.021Z,101329.88
2022-09-21T18:33:21.496Z,101331.59
2022-09-21T18:37:01.029Z,101336.60
2022-09-21T18:40:35.022Z,101334.50
2022-09-21T18:44:18.679Z,101332.69
2022-09-21T18:48:05.233Z,101333.13
2022-09-21T18:51:40.645Z,101336.89
2022-09-21T18:55:20.188Z,101336.81
2022-09-21T18:58:51.311Z,101340.60
2022-09-21T19:02:29.602Z,101342.06
2022-09-21T19:06:22.771Z,101344.71
2022-09-21T19:10:00.271Z,101347.45
2022-09-21T19:13:43.334Z,101353.79
2022-09-21T19:17:26.800Z,101355.10
2022-09-21T19:21:11.659Z,101355.59
2022-09-21T19:24:48.312Z,101354.36
2022-09-21T19:28:36.750Z,101355.52
2022-09-21T19:32:03.938Z,101356.32
2022-09-21T19:35:37.335Z,101359.82
2022-09-21T19:39:06.874Z,101363.17
2022-09-21T19:42:42.474Z,101364.14
2022-09-21T19:46:22.174Z,101362.55
2022-09-21T19:49:55.344Z,101360.11
2022-09-21T19:53:42.754Z,101356.67
2022-09-21T19:57:35.540Z,101355.37
2022-09-21T20:01:07.216Z,101354.90
2022-09-21T20:04:42.857Z,101352.63
2022-09-21T20:08:19.362Z,101355.13
2022-09-21T20:11:55.126Z,101354.47
2022-09-21T20:15:29.983Z,101355.75
2022-09-21T20:19:07.354Z,101346.47
2022-09-21T20:22:37.848Z,101350.50
2022-09-21T20:26:08.701Z,101350.55
2022-09-21T20:29:37.498Z,101351.67
2022-09-21T20:33:08.290Z,101352.92
2022-09-21T20:36:35.026Z,101351.69
2022-09-21T20:40:01.984Z,101354.70
2022-09-21T20:43:32.866Z,101359.11
2022-09-21T20:47:00.709Z,101359.42
2022-09-21T20:50:30.570Z,101361.61
2022-09-21T20:53:58.482Z,101358.39
2022-09-21T20:57:28.169Z,101359.10
2022-09-21T21:00:59.008Z,101363.02
2022-09-21T21:04:26.766Z,101359.46
2022-09-21T21:07:54.285Z,101358.68
2022-09-21T21:11:22.433Z,101363.26
2022-09-21T21:14:51.013Z,101354.94
2022-09-21T21:18:18.132Z,101357.26
2022-09-21T21:21:45.016Z,101360.94
2022-09-21T21:25:13.207Z,101358.76
2022-09-21T21:28:40.050Z,101358.92
2022-09-21T21:32:07.638Z,101357.65
2022-09-21T21:35:34.227Z,101353.94
2022-09-21T21:39:01.126Z,101359.85
2022-09-21T21:42:29.645Z,101356.80
2022-09-21T21:46:02.162Z,101354.27
2022-09-21T21:49:30.106Z,101353.34
2022-09-21T21:53:00.374Z,101352.41
2022-09-21T21:56:27.325Z,101347.70
2022-09-21T21:59:54.038Z,101351.98
2022-09-21T22:03:20.839Z,101355.29
2022-09-21T22:06:49.746Z,101352.36
2022-09-21T22:10:16.733Z,101350.80
2022-09-21T22:13:43.754Z,101349.04
2022-09-21T22:17:10.395Z,101341.59
2022-09-21T22:20:40.964Z,101342.15
2022-09-21T22:24:08.916Z,101344.27
2022-09-21T22:27:35.663Z,101346.23
2022-09-21T22:31:03.748Z,101341.83
2022-09-21T22:34:30.892Z,101337.82
2022-09-21T22:37:58.352Z,101331.77
2022-09-21T22:41:27.020Z,101328.34
2022-09-21T22:44:53.767Z,101330.13
2022-09-21T22:48:21.908Z,101325.48
2022-09-21T22:51:50.009Z,101331.24
2022-09-21T22:55:17.029Z,101333.83
2022-09-21T22:58:45.301Z,101332.03
2022-09-21T23:02:12.519Z,101332.87
2022-09-21T23:05:38.886Z,101338.27
2022-09-21T23:09:09.339Z,101336.72
2022-09-21T23:12:37.420Z,101339.31
2022-09-21T23:16:06.843Z,101337.23
2022-09-21T23:19:33.583Z,101329.59
2022-09-21T23:23:00.321Z,101329.58
2022-09-21T23:26:27.889Z,101330.38
2022-09-21T23:29:55.243Z,101325.86
2022-09-21T23:33:22.371Z,101328.36
2022-09-21T23:36:49.410Z,101329.63
2022-09-21T23:40:16.366Z,101331.48
2022-09-21T23:43:45.178Z,101327.84
2022-09-21T23:47:12.404Z,101328.53
2022-09-21T23:50:39.105Z,101327.92
2022-09-21T23:54:07.010Z,101326.63
2022-09-21T23:57:33.767Z,101331.06
